createdAt,value
2024-05-09T00:00:10.495Z,101597.00
2024-05-09T00:02:41.197Z,101596.00
2024-05-09T00:05:14.904Z,101599.00
2024-05-09T00:07:47.855Z,101605.00
2024-05-09T00:10:28.817Z,101590.00
2024-05-09T00:12:54.565Z,101599.00
2024-05-09T00:15:27.560Z,101592.00
2024-05-09T00:18:00.797Z,101591.00
2024-05-09T00:20:38.861Z,101585.00
2024-05-09T00:23:08.997Z,101591.00
2024-05-09T00:25:43.146Z,101584.00
2024-05-09T00:28:16.153Z,101585.00
2024-05-09T00:30:48.877Z,101581.00
2024-05-09T00:33:21.871Z,101573.00
2024-05-09T00:35:54.901Z,101566.00
2024-05-09T00:38:28.000Z,101571.00
2024-05-09T00:41:01.170Z,101562.00
2024-05-09T00:43:34.566Z,101564.00
2024-05-09T00:46:07.800Z,101567.00
2024-05-09T00:48:40.981Z,101562.00
2024-05-09T00:51:14.641Z,101558.00
2024-05-09T00:53:47.795Z,101551.00
2024-05-09T00:56:22.686Z,101546.00
2024-05-09T00:58:56.361Z,101548.00
2024-05-09T01:01:29.920Z,101539.00
2024-05-09T01:04:03.116Z,101549.00
2024-05-09T01:06:35.802Z,101534.00
2024-05-09T01:09:08.474Z,101532.00
2024-05-09T01:11:45.949Z,101533.00
2024-05-09T01:14:18.999Z,101538.00
2024-05-09T01:16:53.198Z,101533.00
2024-05-09T01:19:28.703Z,101533.00
2024-05-09T01:22:01.877Z,101537.00
2024-05-09T01:24:35.459Z,101528.00
2024-05-09T01:27:08.416Z,101533.00
2024-05-09T01:29:41.385Z,101529.00
2024-05-09T01:32:15.555Z,101522.00
2024-05-09T01:34:48.563Z,101524.00
2024-05-09T01:37:21.276Z,101526.00
2024-05-09T01:39:54.399Z,101524.00
2024-05-09T01:42:27.205Z,101524.00
2024-05-09T01:44:59.932Z,101544.00
2024-05-09T01:47:33.131Z,101521.00
2024-05-09T01:50:09.042Z,101536.00
2024-05-09T01:52:41.483Z,101534.00
2024-05-09T01:55:14.285Z,101523.00
2024-05-09T01:57:47.451Z,101521.00
2024-05-09T02:00:30.233Z,101523.00
2024-05-09T02:02:54.804Z,101510.00
2024-05-09T02:05:27.853Z,101507.00
2024-05-09T02:08:01.042Z,101518.00
2024-05-09T02:10:35.626Z,101505.00
2024-05-09T02:13:09.818Z,101503.00
2024-05-09T02:15:43.132Z,101511.00
2024-05-09T02:18:16.228Z,101504.00
2024-05-09T02:20:49.359Z,101512.00
2024-05-09T02:23:22.298Z,101515.00
2024-05-09T02:25:55.551Z,101518.00
2024-05-09T02:28:28.635Z,101508.00
2024-05-09T02:31:01.515Z,101519.00
2024-05-09T02:33:34.240Z,101510.00
2024-05-09T02:36:07.483Z,101522.00
2024-05-09T02:38:40.419Z,101527.00
2024-05-09T02:41:13.369Z,101521.00
2024-05-09T02:43:46.197Z,101516.00
2024-05-09T02:46:19.118Z,101513.00
2024-05-09T02:48:52.388Z,101512.00
2024-05-09T02:51:25.368Z,101511.00
2024-05-09T02:53:58.425Z,101508.00
2024-05-09T02:56:31.374Z,101516.00
2024-05-09T02:59:04.628Z,101517.00
2024-05-09T03:01:37.730Z,101510.00
2024-05-09T03:04:10.713Z,101516.00
2024-05-09T03:06:46.709Z,101517.00
2024-05-09T03:09:19.605Z,101516.00
2024-05-09T03:11:52.654Z,101523.00
2024-05-09T03:14:25.993Z,101523.00
2024-05-09T03:16:58.809Z,101524.00
2024-05-09T03:19:31.691Z,101533.00
2024-05-09T03:22:05.724Z,101527.00
2024-05-09T03:24:38.712Z,101526.00
2024-05-09T03:27:11.743Z,101524.00
2024-05-09T03:29:44.608Z,101522.00
2024-05-09T03:32:17.458Z,101535.00
2024-05-09T03:34:50.385Z,101533.00
2024-05-09T03:37:23.322Z,101538.00
2024-05-09T03:39:56.127Z,101519.00
2024-05-09T03:42:28.972Z,101537.00
2024-05-09T03:45:02.933Z,101531.00
2024-05-09T03:47:37.220Z,101536.00
2024-05-09T03:50:17.633Z,101534.00
2024-05-09T03:52:44.449Z,101538.00
2024-05-09T03:55:17.331Z,101533.00
2024-05-09T03:57:50.117Z,101532.00
2024-05-09T04:00:31.111Z,101541.00
2024-05-09T04:02:57.138Z,101553.00
2024-05-09T04:05:31.534Z,101543.00
2024-05-09T04:08:04.580Z,101536.00
2024-05-09T04:10:37.674Z,101538.00
2024-05-09T04:13:10.590Z,101536.00
2024-05-09T04:15:44.684Z,101536.00
2024-05-09T04:18:19.020Z,101537.00
2024-05-09T04:20:51.531Z,101540.00
2024-05-09T04:23:24.199Z,101545.00
2024-05-09T04:25:57.332Z,101542.00
2024-05-09T04:28:32.880Z,101547.00
2024-05-09T04:31:05.842Z,101554.00
2024-05-09T04:33:38.772Z,101546.00
2024-05-09T04:36:12.068Z,101549.00
2024-05-09T04:38:45.141Z,101552.00
2024-05-09T04:41:18.406Z,101548.00
2024-05-09T04:43:52.592Z,101549.00
2024-05-09T04:46:25.378Z,101550.00
2024-05-09T04:48:58.265Z,101554.00
2024-05-09T04:51:31.608Z,101559.00
2024-05-09T04:54:04.552Z,101554.00
2024-05-09T04:56:38.610Z,101561.00
2024-05-09T04:59:11.622Z,101556.00
2024-05-09T05:01:44.684Z,101554.00
2024-05-09T05:04:17.976Z,101552.00
2024-05-09T05:06:50.652Z,101551.00
2024-05-09T05:09:23.626Z,101556.00
2024-05-09T05:11:56.711Z,101555.00
2024-05-09T05:14:29.868Z,101550.00
2024-05-09T05:17:02.979Z,101557.00
2024-05-09T05:19:35.970Z,101565.00
2024-05-09T05:22:09.126Z,101564.00
2024-05-09T05:24:42.003Z,101565.00
2024-05-09T05:27:14.865Z,101560.00
2024-05-09T05:29:47.779Z,101575.00
2024-05-09T05:32:21.050Z,101571.00
2024-05-09T05:34:53.978Z,101575.00
2024-05-09T05:37:26.763Z,101576.00
2024-05-09T05:39:59.933Z,101574.00
2024-05-09T05:42:33.214Z,101571.00
2024-05-09T05:45:08.360Z,101569.00
2024-05-09T05:47:40.547Z,101571.00
2024-05-09T05:50:23.780Z,101575.00
2024-05-09T05:52:47.599Z,101576.00
2024-05-09T05:55:20.294Z,101581.00
2024-05-09T05:57:53.204Z,101588.00
2024-05-09T06:00:30.393Z,101584.00
2024-05-09T06:03:00.231Z,101584.00
2024-05-09T06:05:33.679Z,101587.00
2024-05-09T06:08:06.896Z,101596.00
2024-05-09T06:10:41.253Z,101591.00
2024-05-09T06:13:14.577Z,101592.00
2024-05-09T06:15:47.528Z,101607.00
2024-05-09T06:18:20.756Z,101600.00
2024-05-09T06:20:54.310Z,101606.00
2024-05-09T06:23:29.067Z,101615.00
2024-05-09T06:26:02.049Z,101615.00
2024-05-09T06:28:35.014Z,101616.00
2024-05-09T06:31:08.150Z,101616.00
2024-05-09T06:33:43.732Z,101612.00
2024-05-09T06:36:16.647Z,101622.00
2024-05-09T06:38:49.730Z,101625.00
2024-05-09T06:41:22.675Z,101616.00
2024-05-09T06:43:55.474Z,101622.00
2024-05-09T06:46:28.548Z,101616.00
2024-05-09T06:49:03.444Z,101630.00
2024-05-09T06:51:37.706Z,101637.00
2024-05-09T06:54:13.894Z,101630.00
2024-05-09T06:56:47.057Z,101638.00
2024-05-09T06:59:20.026Z,101633.00
2024-05-09T07:01:52.993Z,101648.00
2024-05-09T07:04:25.881Z,101655.00
2024-05-09T07:06:58.878Z,101651.00
2024-05-09T07:09:31.701Z,101659.00
2024-05-09T07:12:05.374Z,101655.00
2024-05-09T07:14:38.840Z,101645.00
2024-05-09T07:17:11.813Z,101656.00
2024-05-09T07:19:44.941Z,101662.00
2024-05-09T07:22:18.161Z,101657.00
2024-05-09T07:24:50.808Z,101660.00
2024-05-09T07:27:23.930Z,101662.00
2024-05-09T07:29:56.837Z,101661.00
2024-05-09T07:32:29.544Z,101671.00
2024-05-09T07:35:02.520Z,101672.00
2024-05-09T07:37:35.613Z,101677.00
2024-05-09T07:40:11.999Z,101678.00
2024-05-09T07:42:43.102Z,101686.00
2024-05-09T07:45:38.951Z,101696.00
2024-05-09T07:49:13.664Z,101703.00
2024-05-09T07:55:32.815Z,101703.00
2024-05-09T07:58:05.643Z,101695.00
2024-05-09T08:00:38.621Z,101712.00
2024-05-09T08:03:11.399Z,101706.00
2024-05-09T08:05:44.370Z,101714.00
2024-05-09T08:08:17.340Z,101719.00
2024-05-09T08:10:50.246Z,101719.00
2024-05-09T08:13:23.458Z,101714.00
2024-05-09T08:15:56.422Z,101712.00
2024-05-09T08:18:29.603Z,101719.00
2024-05-09T08:21:03.200Z,101725.00
2024-05-09T08:23:35.902Z,101722.00
2024-05-09T08:26:09.288Z,101717.00
2024-05-09T08:28:43.113Z,101730.00
2024-05-09T08:31:16.165Z,101722.00
2024-05-09T08:33:51.031Z,101723.00
2024-05-09T08:36:23.874Z,101720.00
2024-05-09T08:38:56.566Z,101727.00
2024-05-09T08:41:30.437Z,101727.00
2024-05-09T08:44:04.906Z,101725.00
2024-05-09T08:46:39.855Z,101732.00
2024-05-09T08:49:13.426Z,101729.00
2024-05-09T08:51:53.250Z,101733.00
2024-05-09T08:54:26.164Z,101732.00
2024-05-09T08:56:59.555Z,101737.00
2024-05-09T08:59:39.402Z,101740.00
2024-05-09T09:02:14.655Z,101746.00
2024-05-09T09:04:58.721Z,101748.00
2024-05-09T09:07:32.980Z,101756.00
2024-05-09T09:10:08.765Z,101756.00
2024-05-09T09:12:42.008Z,101766.00
2024-05-09T09:15:15.030Z,101779.00
2024-05-09T09:17:50.184Z,101775.00
2024-05-09T09:20:29.523Z,101777.00
2024-05-09T09:23:00.000Z,101771.00
2024-05-09T09:25:32.767Z,101778.00
2024-05-09T09:28:08.292Z,101775.00
2024-05-09T09:30:45.143Z,101772.00
2024-05-09T09:33:18.246Z,101778.00
2024-05-09T09:35:51.428Z,101770.00
2024-05-09T09:38:26.151Z,101773.00
2024-05-09T09:40:59.392Z,101770.00
2024-05-09T09:43:34.010Z,101766.00
2024-05-09T09:46:11.574Z,101767.00
2024-05-09T09:48:43.275Z,101765.00
2024-05-09T09:51:17.058Z,101769.00
2024-05-09T09:53:51.885Z,101776.00
2024-05-09T09:56:27.554Z,101773.00
2024-05-09T09:59:01.753Z,101774.00
2024-05-09T10:01:36.097Z,101777.00
2024-05-09T10:04:09.708Z,101774.00
2024-05-09T10:06:44.738Z,101778.00
2024-05-09T10:09:18.539Z,101790.00
2024-05-09T10:11:52.421Z,101782.00
2024-05-09T10:14:28.946Z,101796.00
2024-05-09T10:17:08.574Z,101794.00
2024-05-09T10:19:41.589Z,101790.00
2024-05-09T10:22:14.491Z,101789.00
2024-05-09T10:24:54.867Z,101791.00
2024-05-09T10:27:32.372Z,101791.00
2024-05-09T10:30:11.597Z,101801.00
2024-05-09T10:32:44.816Z,101791.00
2024-05-09T10:35:17.942Z,101793.00
2024-05-09T10:37:52.441Z,101797.00
2024-05-09T10:40:31.010Z,101796.00
2024-05-09T10:43:02.568Z,101810.00
2024-05-09T10:45:34.304Z,101805.00
2024-05-09T10:48:07.652Z,101789.00
2024-05-09T10:50:41.743Z,101796.00
2024-05-09T10:53:14.842Z,101793.00
2024-05-09T10:55:48.998Z,101799.00
2024-05-09T10:58:22.349Z,101798.00
2024-05-09T11:00:55.358Z,101792.00
2024-05-09T11:03:29.070Z,101790.00
2024-05-09T11:06:02.445Z,101781.00
2024-05-09T11:08:36.898Z,101787.00
2024-05-09T11:11:10.645Z,101786.00
2024-05-09T11:13:43.993Z,101798.00
2024-05-09T11:16:23.858Z,101786.00
2024-05-09T11:19:00.616Z,101796.00
2024-05-09T11:21:33.786Z,101788.00
2024-05-09T11:24:09.655Z,101791.00
2024-05-09T11:26:40.959Z,101788.00
2024-05-09T11:29:15.739Z,101790.00
2024-05-09T11:31:51.826Z,101795.00
2024-05-09T11:34:24.743Z,101798.00
2024-05-09T11:36:57.781Z,101794.00
2024-05-09T11:39:30.754Z,101787.00
2024-05-09T11:42:03.695Z,101791.00
2024-05-09T11:44:36.739Z,101796.00
2024-05-09T11:47:10.097Z,101797.00
2024-05-09T11:49:44.773Z,101793.00
2024-05-09T11:52:17.941Z,101797.00
2024-05-09T11:54:50.984Z,101785.00
2024-05-09T11:57:25.012Z,101788.00
2024-05-09T11:59:59.081Z,101789.00
2024-05-09T12:02:32.065Z,101794.00
2024-05-09T12:05:04.966Z,101792.00
2024-05-09T12:07:37.884Z,101802.00
2024-05-09T12:10:16.605Z,101800.00
2024-05-09T12:12:45.570Z,101799.00
2024-05-09T12:15:18.371Z,101804.00
2024-05-09T12:17:51.617Z,101799.00
2024-05-09T12:20:33.076Z,101808.00
2024-05-09T12:22:59.552Z,101810.00
2024-05-09T12:25:32.355Z,101802.00
2024-05-09T12:28:05.415Z,101799.00
2024-05-09T12:30:41.112Z,101803.00
2024-05-09T12:33:15.309Z,101813.00
2024-05-09T12:35:50.720Z,101805.00
2024-05-09T12:38:22.635Z,101803.00
2024-05-09T12:40:55.764Z,101805.00
2024-05-09T12:43:30.194Z,101804.00
2024-05-09T12:46:03.258Z,101798.00
2024-05-09T12:48:36.586Z,101800.00
2024-05-09T12:51:10.431Z,101796.00
2024-05-09T12:53:47.073Z,101802.00
2024-05-09T12:56:19.977Z,101797.00
2024-05-09T12:58:54.048Z,101804.00
2024-05-09T13:01:27.048Z,101796.00
2024-05-09T13:04:00.324Z,101800.00
2024-05-09T13:06:33.794Z,101805.00
2024-05-09T13:09:06.636Z,101805.00
2024-05-09T13:11:39.616Z,101816.00
2024-05-09T13:14:12.859Z,101799.00
2024-05-09T13:16:45.922Z,101809.00
2024-05-09T13:19:18.825Z,101805.00
2024-05-09T13:21:51.895Z,101798.00
2024-05-09T13:24:24.496Z,101799.00
2024-05-09T13:26:57.212Z,101795.00
2024-05-09T13:29:30.196Z,101789.00
2024-05-09T13:32:03.064Z,101782.00
2024-05-09T13:34:36.005Z,101798.00
2024-05-09T13:37:09.196Z,101795.00
2024-05-09T13:39:42.054Z,101790.00
2024-05-09T13:42:14.719Z,101798.00
2024-05-09T13:44:47.513Z,101798.00
2024-05-09T13:47:20.584Z,101797.00
2024-05-09T13:49:53.589Z,101795.00
2024-05-09T13:52:27.919Z,101799.00
2024-05-09T13:55:01.157Z,101800.00
2024-05-09T13:57:34.255Z,101803.00
2024-05-09T14:00:18.208Z,101798.00
2024-05-09T14:02:42.270Z,101805.00
2024-05-09T14:05:15.474Z,101801.00
2024-05-09T14:07:48.730Z,101811.00
2024-05-09T14:10:28.461Z,101798.00
2024-05-09T14:12:55.774Z,101803.00
2024-05-09T14:15:28.450Z,101811.00
2024-05-09T14:18:01.393Z,101798.00
2024-05-09T14:20:35.681Z,101794.00
2024-05-09T14:23:08.582Z,101787.00
2024-05-09T14:25:43.285Z,101793.00
2024-05-09T14:28:16.029Z,101793.00
2024-05-09T14:30:49.000Z,101796.00
2024-05-09T14:33:23.763Z,101791.00
2024-05-09T14:35:57.097Z,101782.00
2024-05-09T14:38:30.689Z,101788.00
2024-05-09T14:41:03.592Z,101777.00
2024-05-09T14:43:36.349Z,101786.00
2024-05-09T14:46:09.908Z,101777.00
2024-05-09T14:48:43.247Z,101783.00
2024-05-09T14:51:18.195Z,101770.00
2024-05-09T14:53:51.006Z,101776.00
2024-05-09T14:56:23.834Z,101775.00
2024-05-09T14:58:57.137Z,101779.00
2024-05-09T15:01:30.178Z,101770.00
2024-05-09T15:04:03.228Z,101774.00
2024-05-09T15:06:36.710Z,101761.00
2024-05-09T15:09:09.868Z,101758.00
2024-05-09T15:11:42.965Z,101750.00
2024-05-09T15:14:15.780Z,101758.00
2024-05-09T15:16:49.856Z,101752.00
2024-05-09T15:19:23.171Z,101743.00
2024-05-09T15:21:56.157Z,101735.00
2024-05-09T15:24:29.105Z,101727.00
2024-05-09T15:27:01.949Z,101723.00
2024-05-09T15:29:34.662Z,101731.00
2024-05-09T15:32:07.882Z,101724.00
2024-05-09T15:34:44.039Z,101722.00
2024-05-09T15:37:17.081Z,101711.00
2024-05-09T15:39:50.372Z,101712.00
2024-05-09T15:42:23.271Z,101712.00
2024-05-09T15:44:57.426Z,101708.00
2024-05-09T15:47:30.480Z,101706.00
2024-05-09T15:50:04.280Z,101706.00
2024-05-09T15:52:37.479Z,101713.00
2024-05-09T15:55:11.679Z,101709.00
2024-05-09T15:57:44.609Z,101710.00
2024-05-09T16:00:25.102Z,101709.00
2024-05-09T16:02:52.167Z,101711.00
2024-05-09T16:05:24.981Z,101712.00
2024-05-09T16:07:57.797Z,101708.00
2024-05-09T16:10:33.232Z,101713.00
2024-05-09T16:13:05.054Z,101721.00
2024-05-09T16:15:38.080Z,101723.00
2024-05-09T16:18:11.426Z,101720.00
2024-05-09T16:20:46.429Z,101724.00
2024-05-09T16:23:18.161Z,101724.00
2024-05-09T16:25:51.011Z,101719.00
2024-05-09T16:28:26.986Z,101731.00
2024-05-09T16:30:59.999Z,101737.00
2024-05-09T16:33:33.390Z,101736.00
2024-05-09T16:36:06.463Z,101729.00
2024-05-09T16:38:40.555Z,101741.00
2024-05-09T16:41:13.164Z,101734.00
2024-05-09T16:43:45.678Z,101744.00
2024-05-09T16:46:19.736Z,101743.00
2024-05-09T16:48:52.851Z,101752.00
2024-05-09T16:51:25.964Z,101756.00
2024-05-09T16:53:59.265Z,101753.00
2024-05-09T16:56:32.199Z,101757.00
2024-05-09T16:59:04.977Z,101742.00
2024-05-09T17:01:38.043Z,101752.00
2024-05-09T17:04:11.041Z,101757.00
2024-05-09T17:06:44.110Z,101754.00
2024-05-09T17:09:19.767Z,101750.00
2024-05-09T17:11:51.002Z,101757.00
2024-05-09T17:14:24.003Z,101752.00
2024-05-09T17:16:57.108Z,101758.00
2024-05-09T17:19:30.196Z,101758.00
2024-05-09T17:22:03.560Z,101750.00
2024-05-09T17:24:36.640Z,101758.00
2024-05-09T17:27:09.951Z,101768.00
2024-05-09T17:29:42.896Z,101763.00
2024-05-09T17:32:15.636Z,101771.00
2024-05-09T17:34:48.633Z,101766.00
2024-05-09T17:37:21.791Z,101778.00
2024-05-09T17:39:54.788Z,101776.00
2024-05-09T17:42:27.980Z,101777.00
2024-05-09T17:45:01.159Z,101779.00
2024-05-09T17:47:34.400Z,101775.00
2024-05-09T17:50:11.865Z,101784.00
2024-05-09T17:52:42.770Z,101787.00
2024-05-09T17:55:15.801Z,101794.00
2024-05-09T17:57:49.092Z,101795.00
2024-05-09T18:00:36.008Z,101792.00
2024-05-09T18:02:59.311Z,101790.00
2024-05-09T18:05:32.834Z,101788.00
2024-05-09T18:08:05.957Z,101790.00
2024-05-09T18:10:40.292Z,101795.00
2024-05-09T18:13:13.882Z,101795.00
2024-05-09T18:15:49.488Z,101807.00
2024-05-09T18:18:22.385Z,101796.00
2024-05-09T18:20:55.526Z,101806.00
2024-05-09T18:23:30.611Z,101807.00
2024-05-09T18:26:03.689Z,101814.00
2024-05-09T18:28:36.640Z,101812.00
2024-05-09T18:31:09.363Z,101818.00
2024-05-09T18:33:42.588Z,101828.00
2024-05-09T18:36:15.575Z,101826.00
2024-05-09T18:38:50.156Z,101830.00
2024-05-09T18:41:23.450Z,101830.00
2024-05-09T18:43:56.866Z,101832.00
2024-05-09T18:46:29.916Z,101837.00
2024-05-09T18:49:02.870Z,101836.00
2024-05-09T18:51:35.851Z,101832.00
2024-05-09T18:54:08.567Z,101839.00
2024-05-09T18:56:50.376Z,101829.00
2024-05-09T18:59:23.974Z,101832.00
2024-05-09T19:01:56.634Z,101836.00
2024-05-09T19:04:29.765Z,101834.00
2024-05-09T19:07:03.822Z,101826.00
2024-05-09T19:09:37.204Z,101838.00
2024-05-09T19:12:11.283Z,101774.00
2024-05-09T19:14:44.127Z,101832.00
2024-05-09T19:17:17.099Z,101830.00
2024-05-09T19:19:50.936Z,101832.00
2024-05-09T19:22:23.939Z,101835.00
2024-05-09T19:24:56.672Z,101824.00
2024-05-09T19:27:29.472Z,101824.00
2024-05-09T19:30:03.151Z,101817.00
2024-05-09T19:32:36.617Z,101820.00
2024-05-09T19:35:09.897Z,101833.00
2024-05-09T19:37:43.826Z,101825.00
2024-05-09T19:40:24.593Z,101836.00
2024-05-09T19:42:50.947Z,101839.00
2024-05-09T19:45:24.416Z,101842.00
2024-05-09T19:47:57.344Z,101833.00
2024-05-09T19:50:39.816Z,101840.00
2024-05-09T19:53:05.925Z,101839.00
2024-05-09T19:55:38.757Z,101843.00
2024-05-09T19:58:12.788Z,101847.00
2024-05-09T20:00:46.419Z,101843.00
2024-05-09T20:03:19.440Z,101846.00
2024-05-09T20:05:52.472Z,101852.00
2024-05-09T20:08:25.635Z,101847.00
2024-05-09T20:10:59.022Z,101855.00
2024-05-09T20:13:32.140Z,101857.00
2024-05-09T20:16:05.297Z,101870.00
2024-05-09T20:18:38.540Z,101864.00
2024-05-09T20:21:11.600Z,101870.00
2024-05-09T20:23:44.585Z,101860.00
2024-05-09T20:26:17.423Z,101853.00
2024-05-09T20:28:50.315Z,101858.00
2024-05-09T20:31:26.231Z,101850.00
2024-05-09T20:33:58.979Z,101853.00
2024-05-09T20:36:34.678Z,101856.00
2024-05-09T20:39:07.604Z,101847.00
2024-05-09T20:41:41.873Z,101854.00
2024-05-09T20:44:14.780Z,101846.00
2024-05-09T20:46:47.751Z,101851.00
2024-05-09T20:49:20.806Z,101845.00
2024-05-09T20:51:53.980Z,101835.00
2024-05-09T20:54:27.000Z,101839.00
2024-05-09T20:57:00.736Z,101838.00
2024-05-09T20:59:34.977Z,101834.00
2024-05-09T21:02:08.048Z,101827.00
2024-05-09T21:04:43.442Z,101828.00
2024-05-09T21:07:15.084Z,101823.00
2024-05-09T21:09:49.508Z,101831.00
2024-05-09T21:12:22.717Z,101832.00
2024-05-09T21:14:55.311Z,101837.00
2024-05-09T21:17:28.151Z,101834.00
2024-05-09T21:20:00.933Z,101829.00
2024-05-09T21:22:34.136Z,101818.00
2024-05-09T21:25:07.716Z,101823.00
2024-05-09T21:27:40.570Z,101826.00
2024-05-09T21:30:18.906Z,101825.00
2024-05-09T21:32:47.371Z,101824.00
2024-05-09T21:35:21.318Z,101830.00
2024-05-09T21:37:54.125Z,101827.00
2024-05-09T21:40:33.739Z,101830.00
2024-05-09T21:43:01.280Z,101832.00
2024-05-09T21:45:34.635Z,101851.00
2024-05-09T21:48:11.407Z,101844.00
2024-05-09T21:50:44.252Z,101832.00
2024-05-09T21:53:17.174Z,101830.00
2024-05-09T21:55:50.740Z,101833.00
2024-05-09T21:58:23.778Z,101832.00
2024-05-09T22:00:56.746Z,101830.00
2024-05-09T22:03:29.635Z,101831.00
2024-05-09T22:06:02.614Z,101830.00
2024-05-09T22:08:35.477Z,101833.00
2024-05-09T22:11:09.365Z,101823.00
2024-05-09T22:13:45.498Z,101840.00
2024-05-09T22:16:18.744Z,101846.00
2024-05-09T22:18:52.021Z,101835.00
2024-05-09T22:21:24.993Z,101833.00
2024-05-09T22:23:58.257Z,101828.00
2024-05-09T22:26:31.354Z,101828.00
2024-05-09T22:29:04.360Z,101824.00
2024-05-09T22:31:37.388Z,101817.00
2024-05-09T22:34:10.806Z,101819.00
2024-05-09T22:36:45.188Z,101810.00
2024-05-09T22:39:18.642Z,101813.00
2024-05-09T22:41:51.413Z,101810.00
2024-05-09T22:44:24.514Z,101809.00
2024-05-09T22:46:57.633Z,101812.00
2024-05-09T22:49:30.928Z,101809.00
2024-05-09T22:52:04.145Z,101819.00
2024-05-09T22:54:37.171Z,101807.00
2024-05-09T22:57:10.512Z,101814.00
2024-05-09T22:59:43.652Z,101808.00
2024-05-09T23:02:16.657Z,101804.00
2024-05-09T23:04:50.127Z,101795.00
2024-05-09T23:07:23.179Z,101786.00
2024-05-09T23:09:56.360Z,101789.00
2024-05-09T23:12:31.165Z,101780.00
2024-05-09T23:15:04.053Z,101772.00
2024-05-09T23:17:37.574Z,101771.00
2024-05-09T23:20:14.444Z,101769.00
2024-05-09T23:22:45.643Z,101761.00
2024-05-09T23:25:19.151Z,101761.00
2024-05-09T23:27:52.258Z,101754.00
2024-05-09T23:32:59.849Z,101742.00
2024-05-09T23:35:32.908Z,101738.00
2024-05-09T23:38:06.248Z,101736.00
2024-05-09T23:40:41.279Z,101735.00
2024-05-09T23:43:14.529Z,101725.00
2024-05-09T23:45:51.416Z,101718.00
2024-05-09T23:48:24.471Z,101715.00
2024-05-09T23:50:57.326Z,101711.00
2024-05-09T23:53:30.186Z,101701.00
2024-05-09T23:56:03.239Z,101707.00
2024-05-09T23:58:36.057Z,101705.00
